sensor_id;sensor_type;location;lat;lon;timestamp;P1;durP1;ratioP1;P2;durP2;ratioP2
70946;SDS011;58605;48.700;8.760;2024-03-08T00:01:13;32.57;;;20.97;;
70946;SDS011;58605;48.700;8.760;2024-03-08T00:03:39;35.20;;;21.83;;
70946;SDS011;58605;48.700;8.760;2024-03-08T00:06:05;30.43;;;20.37;;
70946;SDS011;58605;48.700;8.760;2024-03-08T00:08:34;31.77;;;21.63;;
70946;SDS011;58605;48.700;8.760;2024-03-08T00:11:00;29.73;;;20.50;;
70946;SDS011;58605;48.700;8.760;2024-03-08T00:13:26;31.20;;;20.37;;
70946;SDS011;58605;48.700;8.760;2024-03-08T00:15:53;31.00;;;20.07;;
70946;SDS011;58605;48.700;8.760;2024-03-08T00:18:19;33.13;;;21.57;;
70946;SDS011;58605;48.700;8.760;2024-03-08T00:20:45;32.67;;;21.30;;
70946;SDS011;58605;48.700;8.760;2024-03-08T00:23:11;31.70;;;20.30;;
70946;SDS011;58605;48.700;8.760;2024-03-08T00:25:39;31.90;;;20.10;;
70946;SDS011;58605;48.700;8.760;2024-03-08T00:28:05;29.73;;;20.80;;
70946;SDS011;58605;48.700;8.760;2024-03-08T00:30:32;31.93;;;21.03;;
70946;SDS011;58605;48.700;8.760;2024-03-08T00:32:58;31.60;;;21.90;;
70946;SDS011;58605;48.700;8.760;2024-03-08T00:35:24;29.93;;;20.37;;
70946;SDS011;58605;48.700;8.760;2024-03-08T00:37:51;33.27;;;21.60;;
70946;SDS011;58605;48.700;8.760;2024-03-08T00:40:24;33.33;;;20.90;;
70946;SDS011;58605;48.700;8.760;2024-03-08T00:42:52;41.10;;;22.93;;
70946;SDS011;58605;48.700;8.760;2024-03-08T00:45:18;31.03;;;21.10;;
70946;SDS011;58605;48.700;8.760;2024-03-08T00:47:44;35.03;;;21.60;;
70946;SDS011;58605;48.700;8.760;2024-03-08T00:50:17;34.40;;;22.07;;
70946;SDS011;58605;48.700;8.760;2024-03-08T00:52:49;37.07;;;21.37;;
70946;SDS011;58605;48.700;8.760;2024-03-08T00:55:15;32.10;;;20.80;;
70946;SDS011;58605;48.700;8.760;2024-03-08T00:57:42;32.53;;;21.73;;
70946;SDS011;58605;48.700;8.760;2024-03-08T01:00:10;31.17;;;21.13;;
70946;SDS011;58605;48.700;8.760;2024-03-08T01:02:37;33.23;;;21.37;;
70946;SDS011;58605;48.700;8.760;2024-03-08T01:05:04;34.60;;;20.67;;
70946;SDS011;58605;48.700;8.760;2024-03-08T01:07:32;33.07;;;21.47;;
70946;SDS011;58605;48.700;8.760;2024-03-08T01:09:59;32.13;;;21.13;;
70946;SDS011;58605;48.700;8.760;2024-03-08T01:12:26;33.07;;;21.23;;
70946;SDS011;58605;48.700;8.760;2024-03-08T01:14:52;33.27;;;20.53;;
70946;SDS011;58605;48.700;8.760;2024-03-08T01:17:20;26.90;;;19.57;;
70946;SDS011;58605;48.700;8.760;2024-03-08T01:19:46;28.50;;;20.17;;
70946;SDS011;58605;48.700;8.760;2024-03-08T01:22:12;29.83;;;18.60;;
70946;SDS011;58605;48.700;8.760;2024-03-08T01:24:39;32.17;;;19.97;;
70946;SDS011;58605;48.700;8.760;2024-03-08T01:27:05;29.60;;;18.97;;
70946;SDS011;58605;48.700;8.760;2024-03-08T01:29:33;33.73;;;21.30;;
70946;SDS011;58605;48.700;8.760;2024-03-08T01:31:59;29.93;;;20.70;;
70946;SDS011;58605;48.700;8.760;2024-03-08T01:34:28;33.80;;;20.73;;
70946;SDS011;58605;48.700;8.760;2024-03-08T01:36:54;32.97;;;20.37;;
70946;SDS011;58605;48.700;8.760;2024-03-08T01:39:21;34.33;;;20.83;;
70946;SDS011;58605;48.700;8.760;2024-03-08T01:41:47;33.10;;;21.10;;
70946;SDS011;58605;48.700;8.760;2024-03-08T01:44:14;32.43;;;20.40;;
70946;SDS011;58605;48.700;8.760;2024-03-08T01:46:43;33.13;;;19.80;;
70946;SDS011;58605;48.700;8.760;2024-03-08T01:49:10;31.00;;;21.20;;
70946;SDS011;58605;48.700;8.760;2024-03-08T01:51:39;36.63;;;19.80;;
70946;SDS011;58605;48.700;8.760;2024-03-08T01:54:06;29.57;;;20.07;;
70946;SDS011;58605;48.700;8.760;2024-03-08T01:56:35;31.73;;;20.57;;
70946;SDS011;58605;48.700;8.760;2024-03-08T01:59:03;31.10;;;21.23;;
70946;SDS011;58605;48.700;8.760;2024-03-08T02:04:31;33.20;;;20.87;;
70946;SDS011;58605;48.700;8.760;2024-03-08T02:06:59;31.57;;;19.90;;
70946;SDS011;58605;48.700;8.760;2024-03-08T02:09:26;31.00;;;20.40;;
70946;SDS011;58605;48.700;8.760;2024-03-08T02:11:52;35.00;;;21.77;;
70946;SDS011;58605;48.700;8.760;2024-03-08T02:14:20;30.90;;;19.27;;
70946;SDS011;58605;48.700;8.760;2024-03-08T02:16:46;30.87;;;19.90;;
70946;SDS011;58605;48.700;8.760;2024-03-08T02:19:12;36.73;;;23.00;;
70946;SDS011;58605;48.700;8.760;2024-03-08T02:21:40;36.67;;;23.37;;
70946;SDS011;58605;48.700;8.760;2024-03-08T02:24:06;34.27;;;20.70;;
70946;SDS011;58605;48.700;8.760;2024-03-08T02:26:32;37.93;;;21.93;;
70946;SDS011;58605;48.700;8.760;2024-03-08T02:28:58;33.00;;;20.63;;
70946;SDS011;58605;48.700;8.760;2024-03-08T02:31:25;32.83;;;21.53;;
70946;SDS011;58605;48.700;8.760;2024-03-08T02:33:51;32.00;;;20.80;;
70946;SDS011;58605;48.700;8.760;2024-03-08T02:36:17;35.63;;;21.87;;
70946;SDS011;58605;48.700;8.760;2024-03-08T02:38:44;40.43;;;23.57;;
70946;SDS011;58605;48.700;8.760;2024-03-08T02:41:11;34.23;;;23.10;;
70946;SDS011;58605;48.700;8.760;2024-03-08T02:43:37;36.53;;;22.37;;
70946;SDS011;58605;48.700;8.760;2024-03-08T02:46:03;35.80;;;22.87;;
70946;SDS011;58605;48.700;8.760;2024-03-08T02:48:30;32.70;;;20.70;;
70946;SDS011;58605;48.700;8.760;2024-03-08T02:50:56;34.27;;;21.17;;
70946;SDS011;58605;48.700;8.760;2024-03-08T02:53:22;38.47;;;22.27;;
70946;SDS011;58605;48.700;8.760;2024-03-08T02:55:51;34.63;;;21.83;;
70946;SDS011;58605;48.700;8.760;2024-03-08T02:58:17;37.20;;;21.40;;
70946;SDS011;58605;48.700;8.760;2024-03-08T03:00:43;36.17;;;22.17;;
70946;SDS011;58605;48.700;8.760;2024-03-08T03:03:09;34.20;;;20.80;;
70946;SDS011;58605;48.700;8.760;2024-03-08T03:05:36;34.20;;;21.27;;
70946;SDS011;58605;48.700;8.760;2024-03-08T03:08:02;35.07;;;20.97;;
70946;SDS011;58605;48.700;8.760;2024-03-08T03:10:33;33.67;;;22.70;;
70946;SDS011;58605;48.700;8.760;2024-03-08T03:13:01;34.17;;;21.37;;
70946;SDS011;58605;48.700;8.760;2024-03-08T03:15:29;34.43;;;21.87;;
70946;SDS011;58605;48.700;8.760;2024-03-08T03:17:55;33.43;;;20.57;;
70946;SDS011;58605;48.700;8.760;2024-03-08T03:20:22;33.90;;;20.97;;
70946;SDS011;58605;48.700;8.760;2024-03-08T03:22:51;45.43;;;21.43;;
70946;SDS011;58605;48.700;8.760;2024-03-08T03:25:18;35.23;;;21.70;;
70946;SDS011;58605;48.700;8.760;2024-03-08T03:27:48;33.53;;;21.77;;
70946;SDS011;58605;48.700;8.760;2024-03-08T03:30:16;35.27;;;22.30;;
70946;SDS011;58605;48.700;8.760;2024-03-08T03:32:51;33.07;;;21.43;;
70946;SDS011;58605;48.700;8.760;2024-03-08T03:35:18;34.03;;;21.83;;
70946;SDS011;58605;48.700;8.760;2024-03-08T03:37:45;34.47;;;21.17;;
70946;SDS011;58605;48.700;8.760;2024-03-08T03:40:32;33.10;;;21.20;;
70946;SDS011;58605;48.700;8.760;2024-03-08T03:42:59;36.73;;;20.80;;
70946;SDS011;58605;48.700;8.760;2024-03-08T03:45:27;65.60;;;22.00;;
70946;SDS011;58605;48.700;8.760;2024-03-08T03:47:53;33.30;;;21.43;;
70946;SDS011;58605;48.700;8.760;2024-03-08T03:50:20;34.87;;;21.40;;
70946;SDS011;58605;48.700;8.760;2024-03-08T03:52:47;32.43;;;20.33;;
70946;SDS011;58605;48.700;8.760;2024-03-08T03:55:13;32.67;;;20.67;;
70946;SDS011;58605;48.700;8.760;2024-03-08T03:57:39;36.07;;;21.53;;
70946;SDS011;58605;48.700;8.760;2024-03-08T04:00:06;33.70;;;22.07;;
70946;SDS011;58605;48.700;8.760;2024-03-08T04:02:38;32.80;;;21.03;;
70946;SDS011;58605;48.700;8.760;2024-03-08T04:05:05;33.93;;;21.27;;
70946;SDS011;58605;48.700;8.760;2024-03-08T04:07:32;34.90;;;21.27;;
70946;SDS011;58605;48.700;8.760;2024-03-08T04:09:59;35.10;;;21.10;;
70946;SDS011;58605;48.700;8.760;2024-03-08T04:12:26;32.70;;;19.87;;
70946;SDS011;58605;48.700;8.760;2024-03-08T04:14:55;34.27;;;21.10;;
70946;SDS011;58605;48.700;8.760;2024-03-08T04:17:21;30.90;;;19.70;;
70946;SDS011;58605;48.700;8.760;2024-03-08T04:19:50;31.20;;;20.33;;
70946;SDS011;58605;48.700;8.760;2024-03-08T04:22:17;34.77;;;22.57;;
70946;SDS011;58605;48.700;8.760;2024-03-08T04:24:43;37.90;;;22.10;;
70946;SDS011;58605;48.700;8.760;2024-03-08T04:27:10;29.73;;;19.77;;
70946;SDS011;58605;48.700;8.760;2024-03-08T04:29:36;29.80;;;19.10;;
70946;SDS011;58605;48.700;8.760;2024-03-08T04:32:03;33.80;;;21.47;;
70946;SDS011;58605;48.700;8.760;2024-03-08T04:34:30;30.63;;;19.60;;
70946;SDS011;58605;48.700;8.760;2024-03-08T04:36:58;33.10;;;20.80;;
70946;SDS011;58605;48.700;8.760;2024-03-08T04:39:24;28.40;;;19.70;;
70946;SDS011;58605;48.700;8.760;2024-03-08T04:41:53;30.73;;;19.80;;
70946;SDS011;58605;48.700;8.760;2024-03-08T04:44:20;30.87;;;20.13;;
70946;SDS011;58605;48.700;8.760;2024-03-08T04:46:46;29.80;;;19.97;;
70946;SDS011;58605;48.700;8.760;2024-03-08T04:49:12;30.90;;;19.77;;
70946;SDS011;58605;48.700;8.760;2024-03-08T04:51:38;35.30;;;20.70;;
70946;SDS011;58605;48.700;8.760;2024-03-08T04:54:07;37.20;;;22.07;;
70946;SDS011;58605;48.700;8.760;2024-03-08T04:56:33;34.33;;;21.60;;
70946;SDS011;58605;48.700;8.760;2024-03-08T04:58:59;36.97;;;21.90;;
70946;SDS011;58605;48.700;8.760;2024-03-08T05:01:25;38.67;;;21.97;;
70946;SDS011;58605;48.700;8.760;2024-03-08T05:03:51;40.77;;;22.77;;
70946;SDS011;58605;48.700;8.760;2024-03-08T05:06:20;32.67;;;20.67;;
70946;SDS011;58605;48.700;8.760;2024-03-08T05:08:46;31.63;;;20.47;;
70946;SDS011;58605;48.700;8.760;2024-03-08T05:11:14;31.60;;;19.43;;
70946;SDS011;58605;48.700;8.760;2024-03-08T05:13:40;32.90;;;19.70;;
70946;SDS011;58605;48.700;8.760;2024-03-08T05:16:06;31.43;;;20.27;;
70946;SDS011;58605;48.700;8.760;2024-03-08T05:18:33;34.27;;;21.17;;
70946;SDS011;58605;48.700;8.760;2024-03-08T05:21:01;35.30;;;20.70;;
70946;SDS011;58605;48.700;8.760;2024-03-08T05:23:29;36.90;;;21.00;;
70946;SDS011;58605;48.700;8.760;2024-03-08T05:25:55;32.20;;;20.83;;
70946;SDS011;58605;48.700;8.760;2024-03-08T05:28:22;38.67;;;21.67;;
70946;SDS011;58605;48.700;8.760;2024-03-08T05:30:48;38.87;;;21.60;;
70946;SDS011;58605;48.700;8.760;2024-03-08T05:33:14;38.50;;;21.13;;
70946;SDS011;58605;48.700;8.760;2024-03-08T05:35:41;40.57;;;24.13;;
70946;SDS011;58605;48.700;8.760;2024-03-08T05:38:07;37.30;;;21.63;;
70946;SDS011;58605;48.700;8.760;2024-03-08T05:40:33;38.40;;;23.87;;
70946;SDS011;58605;48.700;8.760;2024-03-08T05:42:59;34.40;;;20.87;;
70946;SDS011;58605;48.700;8.760;2024-03-08T05:45:26;32.03;;;19.53;;
70946;SDS011;58605;48.700;8.760;2024-03-08T05:47:53;25.23;;;17.13;;
70946;SDS011;58605;48.700;8.760;2024-03-08T05:50:19;30.10;;;19.40;;
70946;SDS011;58605;48.700;8.760;2024-03-08T05:52:45;27.57;;;17.57;;
70946;SDS011;58605;48.700;8.760;2024-03-08T05:55:12;28.70;;;18.70;;
70946;SDS011;58605;48.700;8.760;2024-03-08T05:57:39;27.33;;;18.93;;
70946;SDS011;58605;48.700;8.760;2024-03-08T06:00:06;42.77;;;21.23;;
70946;SDS011;58605;48.700;8.760;2024-03-08T06:02:34;37.50;;;21.53;;
70946;SDS011;58605;48.700;8.760;2024-03-08T06:05:04;35.10;;;22.13;;
70946;SDS011;58605;48.700;8.760;2024-03-08T06:07:31;36.97;;;22.73;;
70946;SDS011;58605;48.700;8.760;2024-03-08T06:09:58;30.60;;;19.90;;
70946;SDS011;58605;48.700;8.760;2024-03-08T06:12:25;28.13;;;18.37;;
70946;SDS011;58605;48.700;8.760;2024-03-08T06:14:54;25.60;;;17.20;;
70946;SDS011;58605;48.700;8.760;2024-03-08T06:17:20;27.47;;;18.63;;
70946;SDS011;58605;48.700;8.760;2024-03-08T06:19:52;28.90;;;17.87;;
70946;SDS011;58605;48.700;8.760;2024-03-08T06:22:19;35.43;;;18.47;;
70946;SDS011;58605;48.700;8.760;2024-03-08T06:24:45;28.50;;;19.03;;
70946;SDS011;58605;48.700;8.760;2024-03-08T06:27:12;37.93;;;20.27;;
70946;SDS011;58605;48.700;8.760;2024-03-08T06:29:39;43.97;;;20.33;;
70946;SDS011;58605;48.700;8.760;2024-03-08T06:32:05;29.93;;;19.13;;
70946;SDS011;58605;48.700;8.760;2024-03-08T06:34:32;33.97;;;20.20;;
70946;SDS011;58605;48.700;8.760;2024-03-08T06:37:01;28.33;;;17.93;;
70946;SDS011;58605;48.700;8.760;2024-03-08T06:39:27;32.97;;;20.97;;
70946;SDS011;58605;48.700;8.760;2024-03-08T06:41:57;35.23;;;19.83;;
70946;SDS011;58605;48.700;8.760;2024-03-08T06:44:29;32.23;;;20.33;;
70946;SDS011;58605;48.700;8.760;2024-03-08T06:46:55;30.93;;;19.73;;
70946;SDS011;58605;48.700;8.760;2024-03-08T06:49:21;33.60;;;20.93;;
70946;SDS011;58605;48.700;8.760;2024-03-08T06:51:47;36.63;;;20.43;;
70946;SDS011;58605;48.700;8.760;2024-03-08T06:54:15;30.23;;;19.47;;
70946;SDS011;58605;48.700;8.760;2024-03-08T06:56:41;34.73;;;19.87;;
70946;SDS011;58605;48.700;8.760;2024-03-08T06:59:08;38.93;;;22.10;;
70946;SDS011;58605;48.700;8.760;2024-03-08T07:01:35;37.80;;;21.53;;
70946;SDS011;58605;48.700;8.760;2024-03-08T07:04:02;33.43;;;20.70;;
70946;SDS011;58605;48.700;8.760;2024-03-08T07:06:30;34.73;;;20.80;;
70946;SDS011;58605;48.700;8.760;2024-03-08T07:08:58;39.30;;;20.50;;
70946;SDS011;58605;48.700;8.760;2024-03-08T07:11:26;36.60;;;21.97;;
70946;SDS011;58605;48.700;8.760;2024-03-08T07:13:52;41.70;;;23.13;;
70946;SDS011;58605;48.700;8.760;2024-03-08T07:16:25;35.53;;;21.87;;
70946;SDS011;58605;48.700;8.760;2024-03-08T07:18:52;39.20;;;22.43;;
70946;SDS011;58605;48.700;8.760;2024-03-08T07:21:18;41.37;;;25.20;;
70946;SDS011;58605;48.700;8.760;2024-03-08T07:23:45;41.07;;;25.03;;
70946;SDS011;58605;48.700;8.760;2024-03-08T07:26:27;38.30;;;25.00;;
70946;SDS011;58605;48.700;8.760;2024-03-08T07:28:53;39.20;;;25.60;;
70946;SDS011;58605;48.700;8.760;2024-03-08T07:31:24;44.00;;;26.93;;
70946;SDS011;58605;48.700;8.760;2024-03-08T07:34:08;42.00;;;26.53;;
70946;SDS011;58605;48.700;8.760;2024-03-08T07:36:34;41.53;;;25.00;;
70946;SDS011;58605;48.700;8.760;2024-03-08T07:39:00;42.43;;;25.67;;
70946;SDS011;58605;48.700;8.760;2024-03-08T07:41:28;38.80;;;24.17;;
70946;SDS011;58605;48.700;8.760;2024-03-08T07:43:55;44.03;;;24.93;;
70946;SDS011;58605;48.700;8.760;2024-03-08T07:46:21;36.13;;;23.07;;
70946;SDS011;58605;48.700;8.760;2024-03-08T07:48:48;35.20;;;21.90;;
70946;SDS011;58605;48.700;8.760;2024-03-08T07:51:15;38.27;;;21.77;;
70946;SDS011;58605;48.700;8.760;2024-03-08T07:53:42;34.37;;;21.00;;
70946;SDS011;58605;48.700;8.760;2024-03-08T07:56:09;31.93;;;19.97;;
70946;SDS011;58605;48.700;8.760;2024-03-08T07:58:39;32.00;;;19.30;;
70946;SDS011;58605;48.700;8.760;2024-03-08T08:01:15;35.53;;;22.00;;
70946;SDS011;58605;48.700;8.760;2024-03-08T08:03:41;45.00;;;22.87;;
70946;SDS011;58605;48.700;8.760;2024-03-08T08:06:07;35.13;;;21.23;;
70946;SDS011;58605;48.700;8.760;2024-03-08T08:08:33;35.57;;;22.03;;
70946;SDS011;58605;48.700;8.760;2024-03-08T08:11:00;36.30;;;21.63;;
70946;SDS011;58605;48.700;8.760;2024-03-08T08:13:27;37.73;;;23.43;;
70946;SDS011;58605;48.700;8.760;2024-03-08T08:15:59;37.90;;;21.90;;
70946;SDS011;58605;48.700;8.760;2024-03-08T08:18:25;35.60;;;21.37;;
70946;SDS011;58605;48.700;8.760;2024-03-08T08:20:51;36.30;;;22.07;;
70946;SDS011;58605;48.700;8.760;2024-03-08T08:23:20;39.20;;;21.47;;
70946;SDS011;58605;48.700;8.760;2024-03-08T08:25:46;33.07;;;21.43;;
70946;SDS011;58605;48.700;8.760;2024-03-08T08:28:15;31.93;;;20.07;;
70946;SDS011;58605;48.700;8.760;2024-03-08T08:30:42;33.67;;;20.70;;
70946;SDS011;58605;48.700;8.760;2024-03-08T08:33:10;35.17;;;21.00;;
70946;SDS011;58605;48.700;8.760;2024-03-08T08:35:36;29.53;;;19.93;;
70946;SDS011;58605;48.700;8.760;2024-03-08T08:38:03;33.87;;;19.90;;
70946;SDS011;58605;48.700;8.760;2024-03-08T08:40:29;31.23;;;19.97;;
70946;SDS011;58605;48.700;8.760;2024-03-08T08:42:57;33.80;;;21.57;;
70946;SDS011;58605;48.700;8.760;2024-03-08T08:45:23;35.20;;;22.47;;
70946;SDS011;58605;48.700;8.760;2024-03-08T08:47:49;34.53;;;21.07;;
70946;SDS011;58605;48.700;8.760;2024-03-08T08:50:17;32.13;;;20.10;;
70946;SDS011;58605;48.700;8.760;2024-03-08T08:52:48;32.37;;;19.90;;
70946;SDS011;58605;48.700;8.760;2024-03-08T08:55:14;32.77;;;19.97;;
70946;SDS011;58605;48.700;8.760;2024-03-08T08:57:41;38.00;;;22.17;;
70946;SDS011;58605;48.700;8.760;2024-03-08T09:00:07;34.77;;;20.90;;
70946;SDS011;58605;48.700;8.760;2024-03-08T09:02:36;29.27;;;18.83;;
70946;SDS011;58605;48.700;8.760;2024-03-08T09:05:03;33.30;;;19.10;;
70946;SDS011;58605;48.700;8.760;2024-03-08T09:07:31;31.03;;;18.67;;
70946;SDS011;58605;48.700;8.760;2024-03-08T09:09:59;26.83;;;16.70;;
70946;SDS011;58605;48.700;8.760;2024-03-08T09:12:25;30.07;;;18.10;;
70946;SDS011;58605;48.700;8.760;2024-03-08T09:14:51;30.37;;;18.83;;
70946;SDS011;58605;48.700;8.760;2024-03-08T09:17:17;27.17;;;18.13;;
70946;SDS011;58605;48.700;8.760;2024-03-08T09:19:46;28.30;;;17.43;;
70946;SDS011;58605;48.700;8.760;2024-03-08T09:22:12;28.30;;;18.67;;
70946;SDS011;58605;48.700;8.760;2024-03-08T09:24:46;31.43;;;19.27;;
70946;SDS011;58605;48.700;8.760;2024-03-08T09:27:13;28.27;;;18.43;;
70946;SDS011;58605;48.700;8.760;2024-03-08T09:29:39;26.57;;;19.13;;
70946;SDS011;58605;48.700;8.760;2024-03-08T09:32:05;26.30;;;16.47;;
70946;SDS011;58605;48.700;8.760;2024-03-08T09:34:32;26.07;;;16.77;;
70946;SDS011;58605;48.700;8.760;2024-03-08T09:36:58;23.90;;;15.63;;
70946;SDS011;58605;48.700;8.760;2024-03-08T09:39:24;25.23;;;17.20;;
70946;SDS011;58605;48.700;8.760;2024-03-08T09:41:52;24.57;;;16.07;;
70946;SDS011;58605;48.700;8.760;2024-03-08T09:44:18;29.83;;;16.13;;
70946;SDS011;58605;48.700;8.760;2024-03-08T09:46:44;24.90;;;16.13;;
70946;SDS011;58605;48.700;8.760;2024-03-08T09:49:12;27.27;;;17.83;;
70946;SDS011;58605;48.700;8.760;2024-03-08T09:51:39;26.60;;;15.60;;
70946;SDS011;58605;48.700;8.760;2024-03-08T09:54:05;23.37;;;15.73;;
70946;SDS011;58605;48.700;8.760;2024-03-08T09:56:32;27.57;;;17.43;;
70946;SDS011;58605;48.700;8.760;2024-03-08T09:59:00;27.73;;;16.60;;
70946;SDS011;58605;48.700;8.760;2024-03-08T10:01:29;21.97;;;14.63;;
70946;SDS011;58605;48.700;8.760;2024-03-08T10:03:56;25.80;;;16.63;;
70946;SDS011;58605;48.700;8.760;2024-03-08T10:06:23;25.27;;;16.97;;
70946;SDS011;58605;48.700;8.760;2024-03-08T10:08:49;24.73;;;14.07;;
70946;SDS011;58605;48.700;8.760;2024-03-08T10:11:19;23.30;;;14.03;;
70946;SDS011;58605;48.700;8.760;2024-03-08T10:13:45;24.47;;;15.47;;
70946;SDS011;58605;48.700;8.760;2024-03-08T10:16:14;21.10;;;13.60;;
70946;SDS011;58605;48.700;8.760;2024-03-08T10:18:42;23.00;;;15.10;;
70946;SDS011;58605;48.700;8.760;2024-03-08T10:21:10;23.57;;;16.00;;
70946;SDS011;58605;48.700;8.760;2024-03-08T10:23:38;26.33;;;16.20;;
70946;SDS011;58605;48.700;8.760;2024-03-08T10:26:11;26.20;;;17.47;;
70946;SDS011;58605;48.700;8.760;2024-03-08T10:28:41;27.83;;;14.13;;
70946;SDS011;58605;48.700;8.760;2024-03-08T10:31:08;20.60;;;14.67;;
70946;SDS011;58605;48.700;8.760;2024-03-08T10:33:36;24.93;;;15.77;;
70946;SDS011;58605;48.700;8.760;2024-03-08T10:36:06;23.77;;;15.47;;
70946;SDS011;58605;48.700;8.760;2024-03-08T10:38:33;27.10;;;17.90;;
70946;SDS011;58605;48.700;8.760;2024-03-08T10:41:02;28.40;;;17.73;;
70946;SDS011;58605;48.700;8.760;2024-03-08T10:43:31;22.70;;;14.20;;
70946;SDS011;58605;48.700;8.760;2024-03-08T10:46:08;24.27;;;15.70;;
70946;SDS011;58605;48.700;8.760;2024-03-08T10:48:49;24.20;;;16.17;;
70946;SDS011;58605;48.700;8.760;2024-03-08T10:51:17;27.20;;;17.23;;
70946;SDS011;58605;48.700;8.760;2024-03-08T10:53:45;21.20;;;14.40;;
70946;SDS011;58605;48.700;8.760;2024-03-08T10:56:13;21.17;;;14.80;;
70946;SDS011;58605;48.700;8.760;2024-03-08T10:58:40;21.27;;;13.80;;
70946;SDS011;58605;48.700;8.760;2024-03-08T11:01:07;22.63;;;14.53;;
70946;SDS011;58605;48.700;8.760;2024-03-08T11:03:44;20.60;;;14.03;;
70946;SDS011;58605;48.700;8.760;2024-03-08T11:06:15;24.57;;;16.10;;
70946;SDS011;58605;48.700;8.760;2024-03-08T11:08:42;23.60;;;15.10;;
70946;SDS011;58605;48.700;8.760;2024-03-08T11:11:23;20.87;;;13.30;;
70946;SDS011;58605;48.700;8.760;2024-03-08T11:13:53;24.90;;;15.40;;
70946;SDS011;58605;48.700;8.760;2024-03-08T11:19:06;22.33;;;15.10;;
70946;SDS011;58605;48.700;8.760;2024-03-08T11:21:58;22.00;;;15.33;;
70946;SDS011;58605;48.700;8.760;2024-03-08T11:24:25;24.57;;;16.03;;
70946;SDS011;58605;48.700;8.760;2024-03-08T11:26:54;23.00;;;14.73;;
70946;SDS011;58605;48.700;8.760;2024-03-08T11:29:37;23.20;;;15.53;;
70946;SDS011;58605;48.700;8.760;2024-03-08T11:32:08;19.87;;;13.17;;
70946;SDS011;58605;48.700;8.760;2024-03-08T11:34:35;24.77;;;14.40;;
70946;SDS011;58605;48.700;8.760;2024-03-08T11:37:05;18.13;;;12.77;;
70946;SDS011;58605;48.700;8.760;2024-03-08T11:39:38;24.67;;;16.07;;
70946;SDS011;58605;48.700;8.760;2024-03-08T11:42:05;22.87;;;15.40;;
70946;SDS011;58605;48.700;8.760;2024-03-08T11:44:31;23.63;;;14.97;;
70946;SDS011;58605;48.700;8.760;2024-03-08T11:46:58;17.93;;;12.40;;
70946;SDS011;58605;48.700;8.760;2024-03-08T11:49:24;22.13;;;14.13;;
70946;SDS011;58605;48.700;8.760;2024-03-08T11:51:51;22.27;;;15.30;;
70946;SDS011;58605;48.700;8.760;2024-03-08T11:54:20;23.63;;;14.90;;
70946;SDS011;58605;48.700;8.760;2024-03-08T11:56:48;23.93;;;14.67;;
70946;SDS011;58605;48.700;8.760;2024-03-08T11:59:17;21.37;;;14.80;;
70946;SDS011;58605;48.700;8.760;2024-03-08T12:01:43;20.23;;;14.40;;
70946;SDS011;58605;48.700;8.760;2024-03-08T12:04:21;18.77;;;12.37;;
70946;SDS011;58605;48.700;8.760;2024-03-08T12:06:49;20.40;;;12.73;;
70946;SDS011;58605;48.700;8.760;2024-03-08T12:09:15;22.13;;;13.93;;
70946;SDS011;58605;48.700;8.760;2024-03-08T12:11:43;19.03;;;12.80;;
70946;SDS011;58605;48.700;8.760;2024-03-08T12:14:12;17.07;;;11.90;;
70946;SDS011;58605;48.700;8.760;2024-03-08T12:16:38;20.17;;;13.17;;
70946;SDS011;58605;48.700;8.760;2024-03-08T12:19:04;18.87;;;12.10;;
70946;SDS011;58605;48.700;8.760;2024-03-08T12:21:31;18.33;;;12.30;;
70946;SDS011;58605;48.700;8.760;2024-03-08T12:24:01;16.93;;;11.50;;
70946;SDS011;58605;48.700;8.760;2024-03-08T12:26:29;21.30;;;13.27;;
70946;SDS011;58605;48.700;8.760;2024-03-08T12:31:46;20.60;;;12.90;;
70946;SDS011;58605;48.700;8.760;2024-03-08T12:34:13;17.70;;;12.60;;
70946;SDS011;58605;48.700;8.760;2024-03-08T12:36:43;18.33;;;13.00;;
70946;SDS011;58605;48.700;8.760;2024-03-08T12:39:12;20.47;;;12.97;;
70946;SDS011;58605;48.700;8.760;2024-03-08T12:41:41;18.60;;;13.27;;
70946;SDS011;58605;48.700;8.760;2024-03-08T12:44:07;19.03;;;12.67;;
70946;SDS011;58605;48.700;8.760;2024-03-08T12:46:37;20.83;;;14.73;;
70946;SDS011;58605;48.700;8.760;2024-03-08T12:49:10;24.67;;;15.23;;
70946;SDS011;58605;48.700;8.760;2024-03-08T12:51:37;21.27;;;13.23;;
70946;SDS011;58605;48.700;8.760;2024-03-08T12:54:04;18.90;;;12.53;;
70946;SDS011;58605;48.700;8.760;2024-03-08T12:56:32;19.13;;;12.30;;
70946;SDS011;58605;48.700;8.760;2024-03-08T12:58:59;21.83;;;12.17;;
70946;SDS011;58605;48.700;8.760;2024-03-08T13:01:26;20.03;;;13.60;;
70946;SDS011;58605;48.700;8.760;2024-03-08T13:03:54;16.30;;;11.33;;
70946;SDS011;58605;48.700;8.760;2024-03-08T13:06:23;17.07;;;11.23;;
70946;SDS011;58605;48.700;8.760;2024-03-08T13:08:50;19.20;;;12.93;;
70946;SDS011;58605;48.700;8.760;2024-03-08T13:11:17;16.73;;;11.77;;
70946;SDS011;58605;48.700;8.760;2024-03-08T13:13:44;17.73;;;12.40;;
70946;SDS011;58605;48.700;8.760;2024-03-08T13:16:10;17.07;;;11.60;;
70946;SDS011;58605;48.700;8.760;2024-03-08T13:18:40;19.33;;;12.13;;
70946;SDS011;58605;48.700;8.760;2024-03-08T13:21:10;19.67;;;11.93;;
70946;SDS011;58605;48.700;8.760;2024-03-08T13:23:39;18.60;;;12.17;;
70946;SDS011;58605;48.700;8.760;2024-03-08T13:26:06;18.73;;;12.37;;
70946;SDS011;58605;48.700;8.760;2024-03-08T13:28:32;21.53;;;12.83;;
70946;SDS011;58605;48.700;8.760;2024-03-08T13:31:02;19.90;;;11.80;;
70946;SDS011;58605;48.700;8.760;2024-03-08T13:33:31;20.80;;;13.33;;
70946;SDS011;58605;48.700;8.760;2024-03-08T13:36:01;18.53;;;12.67;;
70946;SDS011;58605;48.700;8.760;2024-03-08T13:38:28;19.50;;;12.60;;
70946;SDS011;58605;48.700;8.760;2024-03-08T13:40:57;15.97;;;10.90;;
70946;SDS011;58605;48.700;8.760;2024-03-08T13:43:23;21.37;;;12.40;;
70946;SDS011;58605;48.700;8.760;2024-03-08T13:45:49;17.10;;;12.17;;
70946;SDS011;58605;48.700;8.760;2024-03-08T13:48:15;19.87;;;12.13;;
70946;SDS011;58605;48.700;8.760;2024-03-08T13:50:41;18.13;;;12.03;;
70946;SDS011;58605;48.700;8.760;2024-03-08T13:53:08;21.70;;;12.80;;
70946;SDS011;58605;48.700;8.760;2024-03-08T13:55:37;19.60;;;12.73;;
70946;SDS011;58605;48.700;8.760;2024-03-08T13:58:03;18.63;;;11.87;;
70946;SDS011;58605;48.700;8.760;2024-03-08T14:00:29;21.33;;;13.50;;
70946;SDS011;58605;48.700;8.760;2024-03-08T14:02:58;18.27;;;12.67;;
70946;SDS011;58605;48.700;8.760;2024-03-08T14:05:24;22.60;;;14.10;;
70946;SDS011;58605;48.700;8.760;2024-03-08T14:07:50;17.83;;;12.47;;
70946;SDS011;58605;48.700;8.760;2024-03-08T14:10:19;17.80;;;12.17;;
70946;SDS011;58605;48.700;8.760;2024-03-08T14:12:49;20.40;;;12.67;;
70946;SDS011;58605;48.700;8.760;2024-03-08T14:15:15;19.93;;;12.60;;
70946;SDS011;58605;48.700;8.760;2024-03-08T14:18:00;20.83;;;12.97;;
70946;SDS011;58605;48.700;8.760;2024-03-08T14:20:26;18.50;;;13.20;;
70946;SDS011;58605;48.700;8.760;2024-03-08T14:22:53;19.00;;;13.30;;
70946;SDS011;58605;48.700;8.760;2024-03-08T14:25:20;21.93;;;13.60;;
70946;SDS011;58605;48.700;8.760;2024-03-08T14:27:50;22.33;;;13.57;;
70946;SDS011;58605;48.700;8.760;2024-03-08T14:30:37;18.77;;;12.93;;
70946;SDS011;58605;48.700;8.760;2024-03-08T14:33:06;21.17;;;14.47;;